Terminal Aerodrome Forecast
Issued by NWS

Home | Current Version | Previous Version | Text Only | Print | Product List | Glossary On
Versions: 1 2 3 4 5 6 7 8 9 10 11 12 13 14 15 16 17 18 19 20
000
FTUS41 KBOX 182335
TAFFMH
TAF
KFMH 182335Z 1900/1924 09004KT P6SM BKN015
     FM190200 15004KT P6SM BKN040
     FM190600 VRB03KT 3SM BR BKN050
     FM190800 25005KT 4SM BR SCT050
     FM191300 27008KT P6SM SCT250
     FM191600 31009KT P6SM FEW250
     FM192200 35009KT P6SM FEW250=

USA.gov is the U.S. government's official web portal to all federal, state and local government web resources and services.